sensor_id;sensor_type;location;lat;lon;timestamp;temperature;humidity
20416;DHT22;10367;52.202;5.996;2023-07-16T00:02:17;17.40;99.90
20416;DHT22;10367;52.202;5.996;2023-07-16T00:04:46;17.50;99.90
20416;DHT22;10367;52.202;5.996;2023-07-16T00:07:15;17.50;99.90
20416;DHT22;10367;52.202;5.996;2023-07-16T00:09:44;17.50;99.90
20416;DHT22;10367;52.202;5.996;2023-07-16T00:12:13;17.50;99.90
20416;DHT22;10367;52.202;5.996;2023-07-16T00:14:42;17.50;99.90
20416;DHT22;10367;52.202;5.996;2023-07-16T00:17:10;17.40;99.90
20416;DHT22;10367;52.202;5.996;2023-07-16T00:19:40;17.40;99.90
20416;DHT22;10367;52.202;5.996;2023-07-16T00:22:09;17.40;99.90
20416;DHT22;10367;52.202;5.996;2023-07-16T00:24:38;17.50;99.90
20416;DHT22;10367;52.202;5.996;2023-07-16T00:27:06;17.50;99.90
20416;DHT22;10367;52.202;5.996;2023-07-16T00:29:35;17.60;99.90
20416;DHT22;10367;52.202;5.996;2023-07-16T00:32:04;17.50;99.90
20416;DHT22;10367;52.202;5.996;2023-07-16T00:34:33;17.60;99.90
20416;DHT22;10367;52.202;5.996;2023-07-16T00:37:04;17.60;99.90
20416;DHT22;10367;52.202;5.996;2023-07-16T00:39:32;17.70;99.90
20416;DHT22;10367;52.202;5.996;2023-07-16T00:42:01;17.70;99.90
20416;DHT22;10367;52.202;5.996;2023-07-16T00:44:30;17.70;99.90
20416;DHT22;10367;52.202;5.996;2023-07-16T00:46:59;17.70;99.90
20416;DHT22;10367;52.202;5.996;2023-07-16T00:49:28;17.60;99.90
20416;DHT22;10367;52.202;5.996;2023-07-16T00:51:58;17.60;99.90
20416;DHT22;10367;52.202;5.996;2023-07-16T00:54:29;17.40;99.90
20416;DHT22;10367;52.202;5.996;2023-07-16T00:56:59;17.40;99.90
20416;DHT22;10367;52.202;5.996;2023-07-16T00:59:28;17.40;99.90
20416;DHT22;10367;52.202;5.996;2023-07-16T01:01:56;17.30;99.90
20416;DHT22;10367;52.202;5.996;2023-07-16T01:04:25;17.30;99.90
20416;DHT22;10367;52.202;5.996;2023-07-16T01:06:57;17.20;99.90
20416;DHT22;10367;52.202;5.996;2023-07-16T01:09:31;17.10;99.90
20416;DHT22;10367;52.202;5.996;2023-07-16T01:12:03;17.10;99.90
20416;DHT22;10367;52.202;5.996;2023-07-16T01:14:33;17.00;99.90
20416;DHT22;10367;52.202;5.996;2023-07-16T01:17:03;17.10;99.90
20416;DHT22;10367;52.202;5.996;2023-07-16T01:19:34;17.00;99.90
20416;DHT22;10367;52.202;5.996;2023-07-16T01:22:27;17.00;99.90
20416;DHT22;10367;52.202;5.996;2023-07-16T01:25:09;17.10;99.90
20416;DHT22;10367;52.202;5.996;2023-07-16T01:27:57;17.00;99.90
20416;DHT22;10367;52.202;5.996;2023-07-16T01:30:32;16.90;99.90
20416;DHT22;10367;52.202;5.996;2023-07-16T01:33:04;16.80;99.90
20416;DHT22;10367;52.202;5.996;2023-07-16T01:35:34;16.80;99.90
20416;DHT22;10367;52.202;5.996;2023-07-16T01:38:03;16.80;99.90
20416;DHT22;10367;52.202;5.996;2023-07-16T01:40:32;16.80;99.90
20416;DHT22;10367;52.202;5.996;2023-07-16T01:43:04;16.80;99.90
20416;DHT22;10367;52.202;5.996;2023-07-16T01:45:35;16.80;99.90
20416;DHT22;10367;52.202;5.996;2023-07-16T01:48:13;16.80;99.90
20416;DHT22;10367;52.202;5.996;2023-07-16T01:50:43;16.80;99.90
20416;DHT22;10367;52.202;5.996;2023-07-16T01:53:11;16.70;99.90
20416;DHT22;10367;52.202;5.996;2023-07-16T01:55:40;16.70;99.90
20416;DHT22;10367;52.202;5.996;2023-07-16T01:58:09;16.70;99.90
20416;DHT22;10367;52.202;5.996;2023-07-16T02:00:39;16.70;99.90
20416;DHT22;10367;52.202;5.996;2023-07-16T02:03:08;16.70;99.90
20416;DHT22;10367;52.202;5.996;2023-07-16T02:05:37;16.70;99.90
20416;DHT22;10367;52.202;5.996;2023-07-16T02:08:05;16.70;99.90
20416;DHT22;10367;52.202;5.996;2023-07-16T02:10:34;16.60;99.90
20416;DHT22;10367;52.202;5.996;2023-07-16T02:13:04;16.70;99.90
20416;DHT22;10367;52.202;5.996;2023-07-16T02:15:32;16.70;99.90
20416;DHT22;10367;52.202;5.996;2023-07-16T02:18:04;16.70;99.90
20416;DHT22;10367;52.202;5.996;2023-07-16T02:20:33;16.60;99.90
20416;DHT22;10367;52.202;5.996;2023-07-16T02:23:01;16.70;99.90
20416;DHT22;10367;52.202;5.996;2023-07-16T02:25:31;16.70;99.90
20416;DHT22;10367;52.202;5.996;2023-07-16T02:28:00;16.60;99.90
20416;DHT22;10367;52.202;5.996;2023-07-16T02:30:29;16.60;99.90
20416;DHT22;10367;52.202;5.996;2023-07-16T02:32:58;16.60;99.90
20416;DHT22;10367;52.202;5.996;2023-07-16T02:35:28;16.50;99.90
20416;DHT22;10367;52.202;5.996;2023-07-16T02:37:57;16.50;99.90
20416;DHT22;10367;52.202;5.996;2023-07-16T02:40:26;16.60;99.90
20416;DHT22;10367;52.202;5.996;2023-07-16T02:42:55;16.50;99.90
20416;DHT22;10367;52.202;5.996;2023-07-16T02:45:23;16.50;99.90
20416;DHT22;10367;52.202;5.996;2023-07-16T02:47:52;16.40;99.90
20416;DHT22;10367;52.202;5.996;2023-07-16T02:50:21;16.40;99.90
20416;DHT22;10367;52.202;5.996;2023-07-16T02:52:51;16.40;99.90
20416;DHT22;10367;52.202;5.996;2023-07-16T02:55:20;16.30;99.90
20416;DHT22;10367;52.202;5.996;2023-07-16T02:57:49;16.30;99.90
20416;DHT22;10367;52.202;5.996;2023-07-16T03:00:18;16.30;99.90
20416;DHT22;10367;52.202;5.996;2023-07-16T03:02:47;16.20;99.90
20416;DHT22;10367;52.202;5.996;2023-07-16T03:05:17;16.30;99.90
20416;DHT22;10367;52.202;5.996;2023-07-16T03:07:46;16.30;99.90
20416;DHT22;10367;52.202;5.996;2023-07-16T03:10:16;16.30;99.90
20416;DHT22;10367;52.202;5.996;2023-07-16T03:12:44;16.20;99.90
20416;DHT22;10367;52.202;5.996;2023-07-16T03:15:13;16.10;99.90
20416;DHT22;10367;52.202;5.996;2023-07-16T03:17:42;16.10;99.90
20416;DHT22;10367;52.202;5.996;2023-07-16T03:20:11;16.10;99.90
20416;DHT22;10367;52.202;5.996;2023-07-16T03:22:40;16.10;99.90
20416;DHT22;10367;52.202;5.996;2023-07-16T03:25:09;16.00;99.90
20416;DHT22;10367;52.202;5.996;2023-07-16T03:27:40;16.00;99.90
20416;DHT22;10367;52.202;5.996;2023-07-16T03:30:09;16.00;99.90
20416;DHT22;10367;52.202;5.996;2023-07-16T03:32:38;15.90;99.90
20416;DHT22;10367;52.202;5.996;2023-07-16T03:35:19;15.90;99.90
20416;DHT22;10367;52.202;5.996;2023-07-16T03:37:52;15.90;99.90
20416;DHT22;10367;52.202;5.996;2023-07-16T03:40:25;15.90;99.90
20416;DHT22;10367;52.202;5.996;2023-07-16T03:42:56;16.00;99.90
20416;DHT22;10367;52.202;5.996;2023-07-16T03:45:25;16.00;99.90
20416;DHT22;10367;52.202;5.996;2023-07-16T03:48:00;16.00;99.90
20416;DHT22;10367;52.202;5.996;2023-07-16T03:50:30;16.00;99.90
20416;DHT22;10367;52.202;5.996;2023-07-16T03:52:59;15.90;99.90
20416;DHT22;10367;52.202;5.996;2023-07-16T03:55:34;16.00;99.90
20416;DHT22;10367;52.202;5.996;2023-07-16T03:58:05;15.90;99.90
20416;DHT22;10367;52.202;5.996;2023-07-16T04:00:34;16.00;99.90
20416;DHT22;10367;52.202;5.996;2023-07-16T04:03:02;16.00;99.90
20416;DHT22;10367;52.202;5.996;2023-07-16T04:05:31;15.90;99.90
20416;DHT22;10367;52.202;5.996;2023-07-16T04:08:00;15.90;99.90
20416;DHT22;10367;52.202;5.996;2023-07-16T04:10:28;16.00;99.90
20416;DHT22;10367;52.202;5.996;2023-07-16T04:12:57;16.00;99.90
20416;DHT22;10367;52.202;5.996;2023-07-16T04:15:27;16.00;99.90
20416;DHT22;10367;52.202;5.996;2023-07-16T04:17:56;16.00;99.90
20416;DHT22;10367;52.202;5.996;2023-07-16T04:20:25;16.00;99.90
20416;DHT22;10367;52.202;5.996;2023-07-16T04:22:54;16.00;99.90
20416;DHT22;10367;52.202;5.996;2023-07-16T04:25:28;16.10;99.90
20416;DHT22;10367;52.202;5.996;2023-07-16T04:27:57;16.10;99.90
20416;DHT22;10367;52.202;5.996;2023-07-16T04:30:27;16.10;99.90
20416;DHT22;10367;52.202;5.996;2023-07-16T04:32:56;16.10;99.90
20416;DHT22;10367;52.202;5.996;2023-07-16T04:35:25;16.20;99.90
20416;DHT22;10367;52.202;5.996;2023-07-16T04:37:53;16.20;99.90
20416;DHT22;10367;52.202;5.996;2023-07-16T04:40:22;16.30;99.90
20416;DHT22;10367;52.202;5.996;2023-07-16T04:42:51;16.30;99.90
20416;DHT22;10367;52.202;5.996;2023-07-16T04:45:22;16.40;99.90
20416;DHT22;10367;52.202;5.996;2023-07-16T04:47:52;16.40;99.90
20416;DHT22;10367;52.202;5.996;2023-07-16T04:50:36;16.40;99.90
20416;DHT22;10367;52.202;5.996;2023-07-16T04:53:05;16.30;99.90
20416;DHT22;10367;52.202;5.996;2023-07-16T04:55:36;16.40;99.90
20416;DHT22;10367;52.202;5.996;2023-07-16T04:58:05;16.40;99.90
20416;DHT22;10367;52.202;5.996;2023-07-16T05:00:33;16.40;99.90
20416;DHT22;10367;52.202;5.996;2023-07-16T05:03:19;16.40;99.90
20416;DHT22;10367;52.202;5.996;2023-07-16T05:06:04;16.50;99.90
20416;DHT22;10367;52.202;5.996;2023-07-16T05:08:32;16.50;99.90
20416;DHT22;10367;52.202;5.996;2023-07-16T05:11:02;16.50;99.90
20416;DHT22;10367;52.202;5.996;2023-07-16T05:13:30;16.50;99.90
20416;DHT22;10367;52.202;5.996;2023-07-16T05:15:59;16.60;99.90
20416;DHT22;10367;52.202;5.996;2023-07-16T05:18:29;16.60;99.90
20416;DHT22;10367;52.202;5.996;2023-07-16T05:20:58;16.60;99.90
20416;DHT22;10367;52.202;5.996;2023-07-16T05:23:26;16.60;99.90
20416;DHT22;10367;52.202;5.996;2023-07-16T05:25:55;16.70;99.90
20416;DHT22;10367;52.202;5.996;2023-07-16T05:28:24;16.70;99.90
20416;DHT22;10367;52.202;5.996;2023-07-16T05:30:59;16.70;99.90
20416;DHT22;10367;52.202;5.996;2023-07-16T05:33:30;16.70;99.90
20416;DHT22;10367;52.202;5.996;2023-07-16T05:35:58;16.80;99.90
20416;DHT22;10367;52.202;5.996;2023-07-16T05:38:27;16.80;99.90
20416;DHT22;10367;52.202;5.996;2023-07-16T05:41:01;16.80;99.90
20416;DHT22;10367;52.202;5.996;2023-07-16T05:43:31;16.80;99.90
20416;DHT22;10367;52.202;5.996;2023-07-16T05:46:00;16.90;99.90
20416;DHT22;10367;52.202;5.996;2023-07-16T05:48:30;16.90;99.90
20416;DHT22;10367;52.202;5.996;2023-07-16T05:50:59;16.90;99.90
20416;DHT22;10367;52.202;5.996;2023-07-16T05:53:27;16.90;99.90
20416;DHT22;10367;52.202;5.996;2023-07-16T05:55:56;16.90;99.90
20416;DHT22;10367;52.202;5.996;2023-07-16T05:58:25;17.00;99.90
20416;DHT22;10367;52.202;5.996;2023-07-16T06:00:53;17.00;99.90
20416;DHT22;10367;52.202;5.996;2023-07-16T06:03:22;17.00;99.90
20416;DHT22;10367;52.202;5.996;2023-07-16T06:05:52;17.00;99.90
20416;DHT22;10367;52.202;5.996;2023-07-16T06:08:21;17.10;99.90
20416;DHT22;10367;52.202;5.996;2023-07-16T06:10:52;17.10;99.90
20416;DHT22;10367;52.202;5.996;2023-07-16T06:13:20;17.10;99.90
20416;DHT22;10367;52.202;5.996;2023-07-16T06:15:49;17.20;99.90
20416;DHT22;10367;52.202;5.996;2023-07-16T06:18:18;17.20;99.90
20416;DHT22;10367;52.202;5.996;2023-07-16T06:20:48;17.20;99.90
20416;DHT22;10367;52.202;5.996;2023-07-16T06:23:20;17.20;99.90
20416;DHT22;10367;52.202;5.996;2023-07-16T06:25:54;17.30;99.90
20416;DHT22;10367;52.202;5.996;2023-07-16T06:28:25;17.30;99.90
20416;DHT22;10367;52.202;5.996;2023-07-16T06:30:54;17.40;99.90
20416;DHT22;10367;52.202;5.996;2023-07-16T06:33:23;17.40;99.90
20416;DHT22;10367;52.202;5.996;2023-07-16T06:35:52;17.40;99.90
20416;DHT22;10367;52.202;5.996;2023-07-16T06:38:22;17.50;99.90
20416;DHT22;10367;52.202;5.996;2023-07-16T06:41:14;17.50;99.90
20416;DHT22;10367;52.202;5.996;2023-07-16T06:43:43;17.60;99.90
20416;DHT22;10367;52.202;5.996;2023-07-16T06:46:11;17.60;99.90
20416;DHT22;10367;52.202;5.996;2023-07-16T06:48:41;17.60;99.90
20416;DHT22;10367;52.202;5.996;2023-07-16T06:51:09;17.60;99.90
20416;DHT22;10367;52.202;5.996;2023-07-16T06:53:39;17.70;99.90
20416;DHT22;10367;52.202;5.996;2023-07-16T06:56:08;17.80;99.90
20416;DHT22;10367;52.202;5.996;2023-07-16T06:58:37;17.80;99.90
20416;DHT22;10367;52.202;5.996;2023-07-16T07:01:06;17.90;99.90
20416;DHT22;10367;52.202;5.996;2023-07-16T07:03:34;17.90;99.90
20416;DHT22;10367;52.202;5.996;2023-07-16T07:06:03;18.00;99.90
20416;DHT22;10367;52.202;5.996;2023-07-16T07:08:33;18.10;99.90
20416;DHT22;10367;52.202;5.996;2023-07-16T07:11:04;18.10;99.90
20416;DHT22;10367;52.202;5.996;2023-07-16T07:13:33;18.20;99.90
20416;DHT22;10367;52.202;5.996;2023-07-16T07:16:02;18.20;99.90
20416;DHT22;10367;52.202;5.996;2023-07-16T07:18:31;18.30;99.90
20416;DHT22;10367;52.202;5.996;2023-07-16T07:21:00;18.30;99.90
20416;DHT22;10367;52.202;5.996;2023-07-16T07:23:28;18.40;99.90
20416;DHT22;10367;52.202;5.996;2023-07-16T07:25:57;18.40;99.90
20416;DHT22;10367;52.202;5.996;2023-07-16T07:28:28;18.50;99.90
20416;DHT22;10367;52.202;5.996;2023-07-16T07:31:00;18.50;99.90
20416;DHT22;10367;52.202;5.996;2023-07-16T07:33:29;18.60;99.90
20416;DHT22;10367;52.202;5.996;2023-07-16T07:35:59;18.70;99.90
20416;DHT22;10367;52.202;5.996;2023-07-16T07:38:28;18.80;99.90
20416;DHT22;10367;52.202;5.996;2023-07-16T07:40:57;19.00;99.90
20416;DHT22;10367;52.202;5.996;2023-07-16T07:43:27;19.10;99.90
20416;DHT22;10367;52.202;5.996;2023-07-16T07:45:56;19.10;99.90
20416;DHT22;10367;52.202;5.996;2023-07-16T07:48:25;19.20;99.90
20416;DHT22;10367;52.202;5.996;2023-07-16T07:50:53;19.40;99.90
20416;DHT22;10367;52.202;5.996;2023-07-16T07:53:22;19.50;99.90
20416;DHT22;10367;52.202;5.996;2023-07-16T07:55:52;19.60;99.90
20416;DHT22;10367;52.202;5.996;2023-07-16T07:58:23;19.80;99.90
20416;DHT22;10367;52.202;5.996;2023-07-16T08:00:53;20.00;99.90
20416;DHT22;10367;52.202;5.996;2023-07-16T08:03:21;20.10;99.90
20416;DHT22;10367;52.202;5.996;2023-07-16T08:05:50;20.10;99.90
20416;DHT22;10367;52.202;5.996;2023-07-16T08:08:21;20.10;99.90
20416;DHT22;10367;52.202;5.996;2023-07-16T08:10:50;20.00;99.90
20416;DHT22;10367;52.202;5.996;2023-07-16T08:13:19;20.00;99.90
20416;DHT22;10367;52.202;5.996;2023-07-16T08:15:48;20.10;99.90
20416;DHT22;10367;52.202;5.996;2023-07-16T08:18:18;20.30;99.90
20416;DHT22;10367;52.202;5.996;2023-07-16T08:20:47;20.30;99.90
20416;DHT22;10367;52.202;5.996;2023-07-16T08:23:15;20.30;99.90
20416;DHT22;10367;52.202;5.996;2023-07-16T08:25:46;20.30;99.90
20416;DHT22;10367;52.202;5.996;2023-07-16T08:28:15;20.40;99.90
20416;DHT22;10367;52.202;5.996;2023-07-16T08:30:46;20.60;99.90
20416;DHT22;10367;52.202;5.996;2023-07-16T08:33:23;20.80;99.90
20416;DHT22;10367;52.202;5.996;2023-07-16T08:35:52;21.00;99.90
20416;DHT22;10367;52.202;5.996;2023-07-16T08:38:21;21.00;99.90
20416;DHT22;10367;52.202;5.996;2023-07-16T08:40:50;21.00;99.90
20416;DHT22;10367;52.202;5.996;2023-07-16T08:43:20;21.20;99.90
20416;DHT22;10367;52.202;5.996;2023-07-16T08:45:50;21.20;99.90
20416;DHT22;10367;52.202;5.996;2023-07-16T08:48:31;21.20;99.90
20416;DHT22;10367;52.202;5.996;2023-07-16T08:51:02;21.20;99.90
20416;DHT22;10367;52.202;5.996;2023-07-16T08:53:38;21.40;99.90
20416;DHT22;10367;52.202;5.996;2023-07-16T08:56:06;21.50;99.90
20416;DHT22;10367;52.202;5.996;2023-07-16T08:58:35;21.40;99.90
20416;DHT22;10367;52.202;5.996;2023-07-16T09:01:05;21.30;99.90
20416;DHT22;10367;52.202;5.996;2023-07-16T09:03:35;21.30;99.90
20416;DHT22;10367;52.202;5.996;2023-07-16T09:06:07;21.40;99.90
20416;DHT22;10367;52.202;5.996;2023-07-16T09:08:36;21.40;99.90
20416;DHT22;10367;52.202;5.996;2023-07-16T09:11:11;21.30;99.90
20416;DHT22;10367;52.202;5.996;2023-07-16T09:13:44;21.20;99.90
20416;DHT22;10367;52.202;5.996;2023-07-16T09:16:13;21.20;99.90
20416;DHT22;10367;52.202;5.996;2023-07-16T09:18:45;21.10;99.90
20416;DHT22;10367;52.202;5.996;2023-07-16T09:21:14;21.00;99.90
20416;DHT22;10367;52.202;5.996;2023-07-16T09:23:44;21.10;99.90
20416;DHT22;10367;52.202;5.996;2023-07-16T09:26:13;21.30;99.90
20416;DHT22;10367;52.202;5.996;2023-07-16T09:28:42;21.30;99.90
20416;DHT22;10367;52.202;5.996;2023-07-16T09:31:11;21.30;99.90
20416;DHT22;10367;52.202;5.996;2023-07-16T09:33:40;21.50;99.90
20416;DHT22;10367;52.202;5.996;2023-07-16T09:36:10;21.40;99.90
20416;DHT22;10367;52.202;5.996;2023-07-16T09:38:39;21.30;99.90
20416;DHT22;10367;52.202;5.996;2023-07-16T09:41:11;21.10;99.90
20416;DHT22;10367;52.202;5.996;2023-07-16T09:43:41;21.00;99.90
20416;DHT22;10367;52.202;5.996;2023-07-16T09:46:10;20.80;99.90
20416;DHT22;10367;52.202;5.996;2023-07-16T09:48:39;20.90;99.90
20416;DHT22;10367;52.202;5.996;2023-07-16T09:51:12;21.10;99.90
20416;DHT22;10367;52.202;5.996;2023-07-16T09:53:42;21.30;99.90
20416;DHT22;10367;52.202;5.996;2023-07-16T09:56:13;21.50;99.90
20416;DHT22;10367;52.202;5.996;2023-07-16T09:58:43;21.90;99.90
20416;DHT22;10367;52.202;5.996;2023-07-16T10:01:13;22.40;99.90
20416;DHT22;10367;52.202;5.996;2023-07-16T10:03:48;22.40;99.90
20416;DHT22;10367;52.202;5.996;2023-07-16T10:06:19;22.20;99.90
20416;DHT22;10367;52.202;5.996;2023-07-16T10:08:49;22.20;99.90
20416;DHT22;10367;52.202;5.996;2023-07-16T10:11:21;22.30;99.90
20416;DHT22;10367;52.202;5.996;2023-07-16T10:13:50;22.40;99.90
20416;DHT22;10367;52.202;5.996;2023-07-16T10:16:22;22.30;99.90
20416;DHT22;10367;52.202;5.996;2023-07-16T10:18:58;22.40;99.90
20416;DHT22;10367;52.202;5.996;2023-07-16T10:21:37;22.50;99.90
20416;DHT22;10367;52.202;5.996;2023-07-16T10:24:16;22.60;99.90
20416;DHT22;10367;52.202;5.996;2023-07-16T10:26:49;22.80;99.90
20416;DHT22;10367;52.202;5.996;2023-07-16T10:29:19;22.60;99.90
20416;DHT22;10367;52.202;5.996;2023-07-16T10:31:51;22.60;99.90
20416;DHT22;10367;52.202;5.996;2023-07-16T10:34:23;22.30;99.90
20416;DHT22;10367;52.202;5.996;2023-07-16T10:36:53;22.10;99.90
20416;DHT22;10367;52.202;5.996;2023-07-16T10:39:22;21.90;99.90
20416;DHT22;10367;52.202;5.996;2023-07-16T10:41:51;21.80;99.90
20416;DHT22;10367;52.202;5.996;2023-07-16T10:44:20;21.80;99.90
20416;DHT22;10367;52.202;5.996;2023-07-16T10:46:50;21.60;99.90
20416;DHT22;10367;52.202;5.996;2023-07-16T10:49:30;21.60;99.90
20416;DHT22;10367;52.202;5.996;2023-07-16T10:52:01;21.70;99.90
20416;DHT22;10367;52.202;5.996;2023-07-16T10:54:30;21.60;99.90
20416;DHT22;10367;52.202;5.996;2023-07-16T10:56:59;21.70;99.90
20416;DHT22;10367;52.202;5.996;2023-07-16T10:59:29;21.90;99.90
20416;DHT22;10367;52.202;5.996;2023-07-16T11:01:58;22.10;99.90
20416;DHT22;10367;52.202;5.996;2023-07-16T11:04:33;22.30;99.90
20416;DHT22;10367;52.202;5.996;2023-07-16T11:07:06;22.20;99.90
20416;DHT22;10367;52.202;5.996;2023-07-16T11:09:40;22.20;99.90
20416;DHT22;10367;52.202;5.996;2023-07-16T11:12:11;22.10;99.90
20416;DHT22;10367;52.202;5.996;2023-07-16T11:14:43;21.90;99.90
20416;DHT22;10367;52.202;5.996;2023-07-16T11:17:17;21.60;99.90
20416;DHT22;10367;52.202;5.996;2023-07-16T11:19:53;21.40;99.90
20416;DHT22;10367;52.202;5.996;2023-07-16T11:22:26;21.20;99.90
20416;DHT22;10367;52.202;5.996;2023-07-16T11:24:55;21.30;99.90
20416;DHT22;10367;52.202;5.996;2023-07-16T11:27:26;21.50;99.90
20416;DHT22;10367;52.202;5.996;2023-07-16T11:29:56;21.70;99.90
20416;DHT22;10367;52.202;5.996;2023-07-16T11:32:27;21.70;99.90
20416;DHT22;10367;52.202;5.996;2023-07-16T11:34:58;21.80;99.90
20416;DHT22;10367;52.202;5.996;2023-07-16T11:37:30;22.00;99.90
20416;DHT22;10367;52.202;5.996;2023-07-16T11:40:01;22.30;99.90
20416;DHT22;10367;52.202;5.996;2023-07-16T11:42:33;22.50;99.90
20416;DHT22;10367;52.202;5.996;2023-07-16T11:45:03;23.10;99.90
20416;DHT22;10367;52.202;5.996;2023-07-16T11:47:32;23.40;99.90
20416;DHT22;10367;52.202;5.996;2023-07-16T11:50:05;23.50;99.90
20416;DHT22;10367;52.202;5.996;2023-07-16T11:52:37;23.20;99.90
20416;DHT22;10367;52.202;5.996;2023-07-16T11:55:07;23.10;99.90
20416;DHT22;10367;52.202;5.996;2023-07-16T11:57:36;23.40;99.90
20416;DHT22;10367;52.202;5.996;2023-07-16T12:00:06;23.80;99.90
20416;DHT22;10367;52.202;5.996;2023-07-16T12:02:35;24.20;99.90
20416;DHT22;10367;52.202;5.996;2023-07-16T12:05:05;24.50;99.90
20416;DHT22;10367;52.202;5.996;2023-07-16T12:07:37;24.90;99.90
20416;DHT22;10367;52.202;5.996;2023-07-16T12:10:07;25.00;99.90
20416;DHT22;10367;52.202;5.996;2023-07-16T12:12:36;25.00;99.90
20416;DHT22;10367;52.202;5.996;2023-07-16T12:15:07;24.70;99.90
20416;DHT22;10367;52.202;5.996;2023-07-16T12:17:36;24.50;99.90
20416;DHT22;10367;52.202;5.996;2023-07-16T12:20:06;24.40;99.90
20416;DHT22;10367;52.202;5.996;2023-07-16T12:22:36;24.10;99.90
20416;DHT22;10367;52.202;5.996;2023-07-16T12:25:06;24.00;99.90
20416;DHT22;10367;52.202;5.996;2023-07-16T12:27:35;24.00;99.90
20416;DHT22;10367;52.202;5.996;2023-07-16T12:30:05;24.20;99.90
20416;DHT22;10367;52.202;5.996;2023-07-16T12:32:35;23.90;99.90
20416;DHT22;10367;52.202;5.996;2023-07-16T12:35:04;23.40;99.90
20416;DHT22;10367;52.202;5.996;2023-07-16T12:37:33;23.10;99.90
20416;DHT22;10367;52.202;5.996;2023-07-16T12:40:07;23.00;99.90
20416;DHT22;10367;52.202;5.996;2023-07-16T12:42:36;23.10;99.90
20416;DHT22;10367;52.202;5.996;2023-07-16T12:45:06;22.90;99.90
20416;DHT22;10367;52.202;5.996;2023-07-16T12:47:35;23.00;99.90
20416;DHT22;10367;52.202;5.996;2023-07-16T12:50:06;23.20;99.90
20416;DHT22;10367;52.202;5.996;2023-07-16T12:52:35;23.00;99.90
20416;DHT22;10367;52.202;5.996;2023-07-16T12:55:06;23.00;99.90
20416;DHT22;10367;52.202;5.996;2023-07-16T12:57:35;23.30;99.90
20416;DHT22;10367;52.202;5.996;2023-07-16T13:00:05;23.60;99.90
20416;DHT22;10367;52.202;5.996;2023-07-16T13:02:36;23.90;99.90
20416;DHT22;10367;52.202;5.996;2023-07-16T13:05:06;24.00;99.90
20416;DHT22;10367;52.202;5.996;2023-07-16T13:07:35;24.30;99.90
20416;DHT22;10367;52.202;5.996;2023-07-16T13:10:10;24.50;99.90
20416;DHT22;10367;52.202;5.996;2023-07-16T13:12:50;25.00;99.90
20416;DHT22;10367;52.202;5.996;2023-07-16T13:15:19;24.70;99.90
20416;DHT22;10367;52.202;5.996;2023-07-16T13:17:48;24.80;99.90
20416;DHT22;10367;52.202;5.996;2023-07-16T13:20:17;24.70;99.90
20416;DHT22;10367;52.202;5.996;2023-07-16T13:22:49;24.80;99.90
20416;DHT22;10367;52.202;5.996;2023-07-16T13:25:19;24.70;99.90
20416;DHT22;10367;52.202;5.996;2023-07-16T13:27:48;24.50;99.90
20416;DHT22;10367;52.202;5.996;2023-07-16T13:30:19;24.40;99.90
20416;DHT22;10367;52.202;5.996;2023-07-16T13:32:48;24.40;99.90
20416;DHT22;10367;52.202;5.996;2023-07-16T13:35:17;24.00;99.90
20416;DHT22;10367;52.202;5.996;2023-07-16T13:37:46;23.70;99.90
20416;DHT22;10367;52.202;5.996;2023-07-16T13:40:15;23.60;99.90
20416;DHT22;10367;52.202;5.996;2023-07-16T13:42:45;23.40;99.90
20416;DHT22;10367;52.202;5.996;2023-07-16T13:45:14;23.50;99.90
20416;DHT22;10367;52.202;5.996;2023-07-16T13:47:43;23.40;99.90
20416;DHT22;10367;52.202;5.996;2023-07-16T13:50:12;23.60;99.90
20416;DHT22;10367;52.202;5.996;2023-07-16T13:52:41;24.00;99.90
20416;DHT22;10367;52.202;5.996;2023-07-16T13:55:09;24.30;99.90
20416;DHT22;10367;52.202;5.996;2023-07-16T13:57:38;24.70;99.90
20416;DHT22;10367;52.202;5.996;2023-07-16T14:00:14;25.10;99.90
20416;DHT22;10367;52.202;5.996;2023-07-16T14:02:45;25.30;99.90
20416;DHT22;10367;52.202;5.996;2023-07-16T14:05:14;25.30;99.90
20416;DHT22;10367;52.202;5.996;2023-07-16T14:07:43;25.20;99.90
20416;DHT22;10367;52.202;5.996;2023-07-16T14:10:11;25.40;99.90
20416;DHT22;10367;52.202;5.996;2023-07-16T14:12:40;25.70;99.90
20416;DHT22;10367;52.202;5.996;2023-07-16T14:15:10;25.60;99.90
20416;DHT22;10367;52.202;5.996;2023-07-16T14:17:39;25.50;99.90
20416;DHT22;10367;52.202;5.996;2023-07-16T14:20:09;25.50;99.90
20416;DHT22;10367;52.202;5.996;2023-07-16T14:22:38;25.50;99.90
20416;DHT22;10367;52.202;5.996;2023-07-16T14:25:07;26.00;99.90
20416;DHT22;10367;52.202;5.996;2023-07-16T14:27:42;26.20;99.90
20416;DHT22;10367;52.202;5.996;2023-07-16T14:30:12;26.60;99.90
20416;DHT22;10367;52.202;5.996;2023-07-16T14:32:41;26.50;99.90
20416;DHT22;10367;52.202;5.996;2023-07-16T14:35:11;25.70;99.90
20416;DHT22;10367;52.202;5.996;2023-07-16T14:38:00;25.60;99.90
20416;DHT22;10367;52.202;5.996;2023-07-16T14:40:29;25.90;99.90
20416;DHT22;10367;52.202;5.996;2023-07-16T14:42:57;26.40;99.90
20416;DHT22;10367;52.202;5.996;2023-07-16T14:45:28;26.70;99.50
20416;DHT22;10367;52.202;5.996;2023-07-16T14:47:56;27.20;98.40
20416;DHT22;10367;52.202;5.996;2023-07-16T14:50:25;27.00;98.00
20416;DHT22;10367;52.202;5.996;2023-07-16T14:52:54;26.50;97.90
20416;DHT22;10367;52.202;5.996;2023-07-16T14:55:23;26.10;98.10
20416;DHT22;10367;52.202;5.996;2023-07-16T14:57:52;25.60;98.00
20416;DHT22;10367;52.202;5.996;2023-07-16T15:00:22;25.30;98.10
20416;DHT22;10367;52.202;5.996;2023-07-16T15:02:52;24.80;98.40
20416;DHT22;10367;52.202;5.996;2023-07-16T15:05:21;24.90;98.10
20416;DHT22;10367;52.202;5.996;2023-07-16T15:07:50;25.10;97.80
20416;DHT22;10367;52.202;5.996;2023-07-16T15:10:19;25.30;97.50
20416;DHT22;10367;52.202;5.996;2023-07-16T15:12:48;25.20;97.20
20416;DHT22;10367;52.202;5.996;2023-07-16T15:15:18;25.10;97.20
20416;DHT22;10367;52.202;5.996;2023-07-16T15:17:46;24.90;97.10
20416;DHT22;10367;52.202;5.996;2023-07-16T15:20:17;24.50;97.10
20416;DHT22;10367;52.202;5.996;2023-07-16T15:22:48;24.50;97.30
20416;DHT22;10367;52.202;5.996;2023-07-16T15:25:16;24.70;97.30
20416;DHT22;10367;52.202;5.996;2023-07-16T15:27:45;25.10;96.90
20416;DHT22;10367;52.202;5.996;2023-07-16T15:30:14;25.50;96.50
20416;DHT22;10367;52.202;5.996;2023-07-16T15:32:43;26.00;96.00
20416;DHT22;10367;52.202;5.996;2023-07-16T15:35:12;26.20;95.80
20416;DHT22;10367;52.202;5.996;2023-07-16T15:37:43;26.50;95.60
20416;DHT22;10367;52.202;5.996;2023-07-16T15:40:13;26.60;95.40
20416;DHT22;10367;52.202;5.996;2023-07-16T15:42:43;26.60;95.20
20416;DHT22;10367;52.202;5.996;2023-07-16T15:45:12;26.30;95.20
20416;DHT22;10367;52.202;5.996;2023-07-16T15:47:46;26.00;95.30
20416;DHT22;10367;52.202;5.996;2023-07-16T15:50:16;25.90;95.50